sensor_id;sensor_type;location;lat;lon;timestamp;P1;durP1;ratioP1;P2;durP2;ratioP2
57067;SDS011;43391;47.448;18.904;2023-05-08T00:01:29;10.15;;;7.38;;
57067;SDS011;43391;47.448;18.904;2023-05-08T00:03:55;10.18;;;7.85;;
57067;SDS011;43391;47.448;18.904;2023-05-08T00:06:20;9.27;;;7.10;;
57067;SDS011;43391;47.448;18.904;2023-05-08T00:08:46;10.73;;;7.35;;
57067;SDS011;43391;47.448;18.904;2023-05-08T00:11:11;8.60;;;7.50;;
57067;SDS011;43391;47.448;18.904;2023-05-08T00:13:36;10.20;;;7.43;;
57067;SDS011;43391;47.448;18.904;2023-05-08T00:16:02;9.68;;;8.05;;
57067;SDS011;43391;47.448;18.904;2023-05-08T00:18:27;9.18;;;8.10;;
57067;SDS011;43391;47.448;18.904;2023-05-08T00:20:52;8.48;;;7.53;;
57067;SDS011;43391;47.448;18.904;2023-05-08T00:23:18;15.15;;;7.80;;
57067;SDS011;43391;47.448;18.904;2023-05-08T00:25:45;11.07;;;8.32;;
57067;SDS011;43391;47.448;18.904;2023-05-08T00:28:11;9.77;;;7.60;;
57067;SDS011;43391;47.448;18.904;2023-05-08T00:30:37;8.80;;;7.28;;
57067;SDS011;43391;47.448;18.904;2023-05-08T00:33:02;12.02;;;8.82;;
57067;SDS011;43391;47.448;18.904;2023-05-08T00:35:28;11.65;;;8.43;;
57067;SDS011;43391;47.448;18.904;2023-05-08T00:37:53;9.80;;;7.82;;
57067;SDS011;43391;47.448;18.904;2023-05-08T00:40:19;11.98;;;7.40;;
57067;SDS011;43391;47.448;18.904;2023-05-08T00:42:44;10.15;;;7.93;;
57067;SDS011;43391;47.448;18.904;2023-05-08T00:45:10;11.93;;;8.40;;
57067;SDS011;43391;47.448;18.904;2023-05-08T00:47:35;11.35;;;8.15;;
57067;SDS011;43391;47.448;18.904;2023-05-08T00:50:01;11.73;;;8.65;;
57067;SDS011;43391;47.448;18.904;2023-05-08T00:52:27;10.63;;;7.90;;
57067;SDS011;43391;47.448;18.904;2023-05-08T00:54:54;11.40;;;8.00;;
57067;SDS011;43391;47.448;18.904;2023-05-08T00:57:20;9.65;;;8.32;;
57067;SDS011;43391;47.448;18.904;2023-05-08T00:59:47;10.82;;;8.20;;
57067;SDS011;43391;47.448;18.904;2023-05-08T01:02:14;11.13;;;8.15;;
57067;SDS011;43391;47.448;18.904;2023-05-08T01:04:40;9.35;;;7.88;;
57067;SDS011;43391;47.448;18.904;2023-05-08T01:07:08;10.27;;;8.10;;
57067;SDS011;43391;47.448;18.904;2023-05-08T01:09:35;12.57;;;8.75;;
57067;SDS011;43391;47.448;18.904;2023-05-08T01:15:08;9.60;;;7.95;;
57067;SDS011;43391;47.448;18.904;2023-05-08T01:34:33;11.00;;;8.35;;
57067;SDS011;43391;47.448;18.904;2023-05-08T01:37:05;10.70;;;8.40;;
57067;SDS011;43391;47.448;18.904;2023-05-08T01:42:03;11.00;;;8.85;;
57067;SDS011;43391;47.448;18.904;2023-05-08T01:44:40;11.52;;;8.95;;
57067;SDS011;43391;47.448;18.904;2023-05-08T01:47:09;11.93;;;9.10;;
57067;SDS011;43391;47.448;18.904;2023-05-08T01:49:39;12.15;;;9.02;;
57067;SDS011;43391;47.448;18.904;2023-05-08T01:52:17;11.00;;;9.30;;
57067;SDS011;43391;47.448;18.904;2023-05-08T01:54:49;11.13;;;8.60;;
57067;SDS011;43391;47.448;18.904;2023-05-08T01:57:21;10.70;;;8.68;;
57067;SDS011;43391;47.448;18.904;2023-05-08T01:59:50;11.07;;;9.18;;
57067;SDS011;43391;47.448;18.904;2023-05-08T02:02:17;12.52;;;10.23;;
57067;SDS011;43391;47.448;18.904;2023-05-08T02:04:43;11.07;;;9.50;;
57067;SDS011;43391;47.448;18.904;2023-05-08T02:07:09;9.85;;;8.48;;
57067;SDS011;43391;47.448;18.904;2023-05-08T02:09:35;12.00;;;9.18;;
57067;SDS011;43391;47.448;18.904;2023-05-08T02:12:02;11.63;;;9.02;;
57067;SDS011;43391;47.448;18.904;2023-05-08T02:14:30;11.10;;;9.35;;
57067;SDS011;43391;47.448;18.904;2023-05-08T02:16:56;10.80;;;9.15;;
57067;SDS011;43391;47.448;18.904;2023-05-08T02:19:24;11.75;;;8.88;;
57067;SDS011;43391;47.448;18.904;2023-05-08T02:21:52;10.73;;;8.55;;
57067;SDS011;43391;47.448;18.904;2023-05-08T02:24:21;11.95;;;9.18;;
57067;SDS011;43391;47.448;18.904;2023-05-08T02:26:47;10.88;;;9.13;;
57067;SDS011;43391;47.448;18.904;2023-05-08T02:29:14;13.23;;;9.55;;
57067;SDS011;43391;47.448;18.904;2023-05-08T02:31:41;11.93;;;9.65;;
57067;SDS011;43391;47.448;18.904;2023-05-08T02:34:09;12.57;;;10.18;;
57067;SDS011;43391;47.448;18.904;2023-05-08T02:36:36;12.77;;;10.57;;
57067;SDS011;43391;47.448;18.904;2023-05-08T02:39:03;11.38;;;9.73;;
57067;SDS011;43391;47.448;18.904;2023-05-08T02:41:32;13.35;;;10.55;;
57067;SDS011;43391;47.448;18.904;2023-05-08T02:43:59;15.23;;;10.80;;
57067;SDS011;43391;47.448;18.904;2023-05-08T02:46:26;16.67;;;10.93;;
57067;SDS011;43391;47.448;18.904;2023-05-08T02:49:11;13.15;;;10.02;;
57067;SDS011;43391;47.448;18.904;2023-05-08T02:51:54;12.38;;;9.57;;
57067;SDS011;43391;47.448;18.904;2023-05-08T02:57:00;13.45;;;10.48;;
57067;SDS011;43391;47.448;18.904;2023-05-08T03:02:21;15.77;;;12.25;;
57067;SDS011;43391;47.448;18.904;2023-05-08T03:04:58;13.93;;;11.68;;
57067;SDS011;43391;47.448;18.904;2023-05-08T03:07:27;13.55;;;11.23;;
57067;SDS011;43391;47.448;18.904;2023-05-08T03:09:59;15.65;;;12.05;;
57067;SDS011;43391;47.448;18.904;2023-05-08T03:12:29;15.48;;;11.65;;
57067;SDS011;43391;47.448;18.904;2023-05-08T03:14:59;14.13;;;11.27;;
57067;SDS011;43391;47.448;18.904;2023-05-08T03:17:31;17.23;;;11.65;;
57067;SDS011;43391;47.448;18.904;2023-05-08T03:19:59;17.95;;;11.75;;
57067;SDS011;43391;47.448;18.904;2023-05-08T03:22:29;17.55;;;12.10;;
57067;SDS011;43391;47.448;18.904;2023-05-08T03:27:25;13.95;;;10.20;;
57067;SDS011;43391;47.448;18.904;2023-05-08T03:29:53;12.95;;;10.40;;
57067;SDS011;43391;47.448;18.904;2023-05-08T03:32:20;11.50;;;9.75;;
57067;SDS011;43391;47.448;18.904;2023-05-08T03:34:50;15.20;;;10.10;;
57067;SDS011;43391;47.448;18.904;2023-05-08T03:37:17;13.57;;;10.65;;
57067;SDS011;43391;47.448;18.904;2023-05-08T03:39:42;14.82;;;11.05;;
57067;SDS011;43391;47.448;18.904;2023-05-08T03:42:08;16.52;;;11.63;;
57067;SDS011;43391;47.448;18.904;2023-05-08T03:44:34;16.30;;;11.45;;
57067;SDS011;43391;47.448;18.904;2023-05-08T03:47:01;13.50;;;10.77;;
57067;SDS011;43391;47.448;18.904;2023-05-08T03:49:28;12.80;;;10.55;;
57067;SDS011;43391;47.448;18.904;2023-05-08T03:51:55;16.05;;;11.30;;
57067;SDS011;43391;47.448;18.904;2023-05-08T03:54:20;15.07;;;12.70;;
57067;SDS011;43391;47.448;18.904;2023-05-08T03:56:49;19.40;;;12.63;;
57067;SDS011;43391;47.448;18.904;2023-05-08T03:59:20;15.98;;;12.38;;
57067;SDS011;43391;47.448;18.904;2023-05-08T04:01:54;15.32;;;11.95;;
57067;SDS011;43391;47.448;18.904;2023-05-08T04:04:29;17.05;;;12.55;;
57067;SDS011;43391;47.448;18.904;2023-05-08T04:09:36;16.17;;;12.98;;
57067;SDS011;43391;47.448;18.904;2023-05-08T04:12:20;17.92;;;12.90;;
57067;SDS011;43391;47.448;18.904;2023-05-08T04:14:54;18.92;;;13.90;;
57067;SDS011;43391;47.448;18.904;2023-05-08T04:17:27;21.77;;;14.07;;
57067;SDS011;43391;47.448;18.904;2023-05-08T04:20:12;19.17;;;14.15;;
57067;SDS011;43391;47.448;18.904;2023-05-08T04:22:41;18.75;;;14.05;;
57067;SDS011;43391;47.448;18.904;2023-05-08T04:25:07;21.92;;;15.10;;
57067;SDS011;43391;47.448;18.904;2023-05-08T04:27:35;22.33;;;15.10;;
57067;SDS011;43391;47.448;18.904;2023-05-08T04:30:01;19.38;;;14.55;;
57067;SDS011;43391;47.448;18.904;2023-05-08T04:32:27;19.88;;;15.40;;
57067;SDS011;43391;47.448;18.904;2023-05-08T04:34:54;17.25;;;13.73;;
57067;SDS011;43391;47.448;18.904;2023-05-08T04:37:29;19.52;;;14.57;;
57067;SDS011;43391;47.448;18.904;2023-05-08T04:39:56;19.85;;;14.32;;
57067;SDS011;43391;47.448;18.904;2023-05-08T04:42:22;24.95;;;17.38;;
57067;SDS011;43391;47.448;18.904;2023-05-08T04:44:48;54.92;;;44.53;;
57067;SDS011;43391;47.448;18.904;2023-05-08T04:47:14;39.47;;;30.90;;
57067;SDS011;43391;47.448;18.904;2023-05-08T04:49:39;23.52;;;19.77;;
57067;SDS011;43391;47.448;18.904;2023-05-08T04:52:05;29.63;;;19.65;;
57067;SDS011;43391;47.448;18.904;2023-05-08T04:54:30;24.50;;;17.42;;
57067;SDS011;43391;47.448;18.904;2023-05-08T04:56:56;22.13;;;17.25;;
57067;SDS011;43391;47.448;18.904;2023-05-08T04:59:21;23.85;;;17.65;;
57067;SDS011;43391;47.448;18.904;2023-05-08T05:01:49;23.77;;;16.98;;
57067;SDS011;43391;47.448;18.904;2023-05-08T05:04:14;23.63;;;17.40;;
57067;SDS011;43391;47.448;18.904;2023-05-08T05:06:39;22.55;;;17.17;;
57067;SDS011;43391;47.448;18.904;2023-05-08T05:09:05;21.35;;;16.45;;
57067;SDS011;43391;47.448;18.904;2023-05-08T05:11:30;25.10;;;18.08;;
57067;SDS011;43391;47.448;18.904;2023-05-08T05:13:56;22.02;;;17.27;;
57067;SDS011;43391;47.448;18.904;2023-05-08T05:16:21;21.40;;;16.98;;
57067;SDS011;43391;47.448;18.904;2023-05-08T05:18:46;23.05;;;18.90;;
57067;SDS011;43391;47.448;18.904;2023-05-08T05:21:12;26.33;;;18.73;;
57067;SDS011;43391;47.448;18.904;2023-05-08T05:23:38;26.75;;;19.88;;
57067;SDS011;43391;47.448;18.904;2023-05-08T05:26:03;24.50;;;18.15;;
57067;SDS011;43391;47.448;18.904;2023-05-08T05:28:28;27.38;;;19.08;;
57067;SDS011;43391;47.448;18.904;2023-05-08T05:30:54;24.83;;;17.77;;
57067;SDS011;43391;47.448;18.904;2023-05-08T05:33:19;25.48;;;17.35;;
57067;SDS011;43391;47.448;18.904;2023-05-08T05:35:45;33.50;;;27.45;;
57067;SDS011;43391;47.448;18.904;2023-05-08T05:38:10;41.45;;;33.95;;
57067;SDS011;43391;47.448;18.904;2023-05-08T05:40:36;25.63;;;21.48;;
57067;SDS011;43391;47.448;18.904;2023-05-08T05:43:01;21.13;;;16.50;;
57067;SDS011;43391;47.448;18.904;2023-05-08T05:45:26;13.40;;;10.88;;
57067;SDS011;43391;47.448;18.904;2023-05-08T05:47:52;10.23;;;8.55;;
57067;SDS011;43391;47.448;18.904;2023-05-08T05:50:18;14.15;;;8.80;;
57067;SDS011;43391;47.448;18.904;2023-05-08T05:52:45;10.57;;;7.53;;
57067;SDS011;43391;47.448;18.904;2023-05-08T05:55:11;15.73;;;7.75;;
57067;SDS011;43391;47.448;18.904;2023-05-08T05:57:36;19.85;;;7.28;;
57067;SDS011;43391;47.448;18.904;2023-05-08T06:00:02;7.25;;;5.30;;
57067;SDS011;43391;47.448;18.904;2023-05-08T06:02:29;10.75;;;6.28;;
57067;SDS011;43391;47.448;18.904;2023-05-08T06:04:54;8.52;;;5.95;;
57067;SDS011;43391;47.448;18.904;2023-05-08T06:07:19;9.60;;;6.40;;
57067;SDS011;43391;47.448;18.904;2023-05-08T06:09:46;8.48;;;6.47;;
57067;SDS011;43391;47.448;18.904;2023-05-08T06:12:11;8.15;;;5.78;;
57067;SDS011;43391;47.448;18.904;2023-05-08T06:14:37;6.43;;;5.60;;
57067;SDS011;43391;47.448;18.904;2023-05-08T06:17:02;14.20;;;6.10;;
57067;SDS011;43391;47.448;18.904;2023-05-08T06:19:27;9.80;;;5.70;;
57067;SDS011;43391;47.448;18.904;2023-05-08T06:21:53;6.90;;;5.32;;
57067;SDS011;43391;47.448;18.904;2023-05-08T06:24:18;7.68;;;4.60;;
57067;SDS011;43391;47.448;18.904;2023-05-08T06:26:44;4.88;;;4.10;;
57067;SDS011;43391;47.448;18.904;2023-05-08T06:29:11;6.32;;;4.20;;
57067;SDS011;43391;47.448;18.904;2023-05-08T06:31:37;5.90;;;3.15;;
57067;SDS011;43391;47.448;18.904;2023-05-08T06:34:02;4.22;;;3.35;;
57067;SDS011;43391;47.448;18.904;2023-05-08T06:36:28;5.35;;;3.42;;
57067;SDS011;43391;47.448;18.904;2023-05-08T06:38:53;5.75;;;3.45;;
57067;SDS011;43391;47.448;18.904;2023-05-08T06:41:18;4.47;;;3.13;;
57067;SDS011;43391;47.448;18.904;2023-05-08T06:43:44;5.32;;;3.03;;
57067;SDS011;43391;47.448;18.904;2023-05-08T06:46:09;5.72;;;2.70;;
57067;SDS011;43391;47.448;18.904;2023-05-08T06:48:35;3.63;;;3.00;;
57067;SDS011;43391;47.448;18.904;2023-05-08T06:51:00;3.95;;;2.70;;
57067;SDS011;43391;47.448;18.904;2023-05-08T06:53:26;3.88;;;2.55;;
57067;SDS011;43391;47.448;18.904;2023-05-08T06:55:51;5.97;;;2.65;;
57067;SDS011;43391;47.448;18.904;2023-05-08T06:58:17;5.13;;;2.90;;
57067;SDS011;43391;47.448;18.904;2023-05-08T07:00:42;7.13;;;2.70;;
57067;SDS011;43391;47.448;18.904;2023-05-08T07:03:07;6.38;;;2.70;;
57067;SDS011;43391;47.448;18.904;2023-05-08T07:05:33;9.35;;;3.65;;
57067;SDS011;43391;47.448;18.904;2023-05-08T07:07:58;4.95;;;2.60;;
57067;SDS011;43391;47.448;18.904;2023-05-08T07:10:23;3.08;;;2.30;;
57067;SDS011;43391;47.448;18.904;2023-05-08T07:12:49;2.92;;;2.17;;
57067;SDS011;43391;47.448;18.904;2023-05-08T07:15:14;3.78;;;2.40;;
57067;SDS011;43391;47.448;18.904;2023-05-08T07:17:40;3.65;;;2.53;;
57067;SDS011;43391;47.448;18.904;2023-05-08T07:20:06;3.88;;;2.40;;
57067;SDS011;43391;47.448;18.904;2023-05-08T07:22:32;3.85;;;2.20;;
57067;SDS011;43391;47.448;18.904;2023-05-08T07:24:58;4.35;;;2.67;;
57067;SDS011;43391;47.448;18.904;2023-05-08T07:27:23;3.85;;;2.20;;
57067;SDS011;43391;47.448;18.904;2023-05-08T07:29:49;6.40;;;2.88;;
57067;SDS011;43391;47.448;18.904;2023-05-08T07:32:14;5.88;;;3.75;;
57067;SDS011;43391;47.448;18.904;2023-05-08T07:34:40;3.03;;;2.70;;
57067;SDS011;43391;47.448;18.904;2023-05-08T07:37:06;5.35;;;2.75;;
57067;SDS011;43391;47.448;18.904;2023-05-08T07:39:31;6.35;;;5.00;;
57067;SDS011;43391;47.448;18.904;2023-05-08T07:41:57;4.07;;;3.55;;
57067;SDS011;43391;47.448;18.904;2023-05-08T07:44:22;4.35;;;3.65;;
57067;SDS011;43391;47.448;18.904;2023-05-08T07:46:47;3.38;;;2.60;;
57067;SDS011;43391;47.448;18.904;2023-05-08T07:49:13;3.42;;;2.22;;
57067;SDS011;43391;47.448;18.904;2023-05-08T07:51:38;9.02;;;2.42;;
57067;SDS011;43391;47.448;18.904;2023-05-08T07:54:04;3.35;;;2.67;;
57067;SDS011;43391;47.448;18.904;2023-05-08T07:56:30;3.28;;;2.45;;
57067;SDS011;43391;47.448;18.904;2023-05-08T07:58:55;3.53;;;2.50;;
57067;SDS011;43391;47.448;18.904;2023-05-08T08:01:21;4.55;;;2.53;;
57067;SDS011;43391;47.448;18.904;2023-05-08T08:03:46;4.13;;;2.25;;
57067;SDS011;43391;47.448;18.904;2023-05-08T08:06:12;3.97;;;2.33;;
57067;SDS011;43391;47.448;18.904;2023-05-08T08:08:38;2.33;;;1.90;;
57067;SDS011;43391;47.448;18.904;2023-05-08T08:11:03;2.97;;;2.20;;
57067;SDS011;43391;47.448;18.904;2023-05-08T08:13:29;3.00;;;2.42;;
57067;SDS011;43391;47.448;18.904;2023-05-08T08:15:55;2.47;;;2.13;;
57067;SDS011;43391;47.448;18.904;2023-05-08T08:18:21;2.22;;;1.98;;
57067;SDS011;43391;47.448;18.904;2023-05-08T08:20:46;4.07;;;2.10;;
57067;SDS011;43391;47.448;18.904;2023-05-08T08:23:11;3.72;;;2.30;;
57067;SDS011;43391;47.448;18.904;2023-05-08T08:25:37;2.20;;;2.00;;
57067;SDS011;43391;47.448;18.904;2023-05-08T08:28:02;5.13;;;2.05;;
57067;SDS011;43391;47.448;18.904;2023-05-08T08:30:28;5.13;;;2.13;;
57067;SDS011;43391;47.448;18.904;2023-05-08T08:32:53;2.50;;;2.13;;
57067;SDS011;43391;47.448;18.904;2023-05-08T08:35:18;2.35;;;2.15;;
57067;SDS011;43391;47.448;18.904;2023-05-08T08:37:44;2.53;;;1.90;;
57067;SDS011;43391;47.448;18.904;2023-05-08T08:40:09;3.67;;;2.10;;
57067;SDS011;43391;47.448;18.904;2023-05-08T08:42:35;4.50;;;2.17;;
57067;SDS011;43391;47.448;18.904;2023-05-08T08:45:00;1.73;;;1.63;;
57067;SDS011;43391;47.448;18.904;2023-05-08T08:47:31;5.32;;;1.95;;
57067;SDS011;43391;47.448;18.904;2023-05-08T08:50:01;2.03;;;1.85;;
57067;SDS011;43391;47.448;18.904;2023-05-08T08:52:30;2.65;;;1.90;;
57067;SDS011;43391;47.448;18.904;2023-05-08T08:55:03;1.90;;;1.75;;
57067;SDS011;43391;47.448;18.904;2023-05-08T08:57:32;3.38;;;1.80;;
57067;SDS011;43391;47.448;18.904;2023-05-08T09:00:01;2.10;;;1.90;;
57067;SDS011;43391;47.448;18.904;2023-05-08T09:02:29;2.88;;;2.08;;
57067;SDS011;43391;47.448;18.904;2023-05-08T09:04:55;2.53;;;1.80;;
57067;SDS011;43391;47.448;18.904;2023-05-08T09:07:21;2.78;;;2.08;;
57067;SDS011;43391;47.448;18.904;2023-05-08T09:09:47;2.22;;;1.92;;
57067;SDS011;43391;47.448;18.904;2023-05-08T09:12:13;2.70;;;1.90;;
57067;SDS011;43391;47.448;18.904;2023-05-08T09:14:39;2.33;;;1.70;;
57067;SDS011;43391;47.448;18.904;2023-05-08T09:17:04;2.88;;;2.00;;
57067;SDS011;43391;47.448;18.904;2023-05-08T09:19:30;2.38;;;1.50;;
57067;SDS011;43391;47.448;18.904;2023-05-08T09:21:59;2.50;;;1.77;;
57067;SDS011;43391;47.448;18.904;2023-05-08T09:24:25;2.28;;;1.48;;
57067;SDS011;43391;47.448;18.904;2023-05-08T09:26:51;2.65;;;1.67;;
57067;SDS011;43391;47.448;18.904;2023-05-08T09:29:18;1.75;;;1.63;;
57067;SDS011;43391;47.448;18.904;2023-05-08T09:34:27;2.13;;;1.55;;
57067;SDS011;43391;47.448;18.904;2023-05-08T09:36:54;3.75;;;1.75;;
57067;SDS011;43391;47.448;18.904;2023-05-08T09:39:21;1.67;;;1.33;;
57067;SDS011;43391;47.448;18.904;2023-05-08T09:42:01;1.55;;;1.27;;
57067;SDS011;43391;47.448;18.904;2023-05-08T09:44:28;1.65;;;1.30;;
57067;SDS011;43391;47.448;18.904;2023-05-08T09:47:09;2.40;;;1.33;;
57067;SDS011;43391;47.448;18.904;2023-05-08T09:49:35;3.38;;;1.30;;
57067;SDS011;43391;47.448;18.904;2023-05-08T09:52:01;1.65;;;1.00;;
57067;SDS011;43391;47.448;18.904;2023-05-08T09:54:27;1.98;;;1.05;;
57067;SDS011;43391;47.448;18.904;2023-05-08T09:56:52;2.15;;;1.35;;
57067;SDS011;43391;47.448;18.904;2023-05-08T09:59:21;1.27;;;1.17;;
57067;SDS011;43391;47.448;18.904;2023-05-08T10:01:47;3.03;;;1.40;;
57067;SDS011;43391;47.448;18.904;2023-05-08T10:04:15;1.40;;;1.30;;
57067;SDS011;43391;47.448;18.904;2023-05-08T10:06:40;1.13;;;1.02;;
57067;SDS011;43391;47.448;18.904;2023-05-08T10:09:12;1.05;;;1.05;;
57067;SDS011;43391;47.448;18.904;2023-05-08T10:11:39;2.42;;;1.00;;
57067;SDS011;43391;47.448;18.904;2023-05-08T10:14:06;1.55;;;1.08;;
57067;SDS011;43391;47.448;18.904;2023-05-08T10:16:35;1.17;;;1.00;;
57067;SDS011;43391;47.448;18.904;2023-05-08T10:19:10;1.00;;;0.90;;
57067;SDS011;43391;47.448;18.904;2023-05-08T10:21:41;1.10;;;1.00;;
57067;SDS011;43391;47.448;18.904;2023-05-08T10:24:14;1.10;;;1.00;;
57067;SDS011;43391;47.448;18.904;2023-05-08T10:27:04;1.42;;;1.00;;
57067;SDS011;43391;47.448;18.904;2023-05-08T10:29:46;4.43;;;1.25;;
57067;SDS011;43391;47.448;18.904;2023-05-08T10:32:20;2.90;;;0.98;;
57067;SDS011;43391;47.448;18.904;2023-05-08T10:34:55;2.75;;;0.90;;
57067;SDS011;43391;47.448;18.904;2023-05-08T10:37:23;1.55;;;0.98;;
57067;SDS011;43391;47.448;18.904;2023-05-08T10:39:48;4.32;;;1.40;;
57067;SDS011;43391;47.448;18.904;2023-05-08T10:42:15;1.65;;;1.20;;
57067;SDS011;43391;47.448;18.904;2023-05-08T10:44:41;2.33;;;0.85;;
57067;SDS011;43391;47.448;18.904;2023-05-08T10:52:44;0.73;;;0.70;;
57067;SDS011;43391;47.448;18.904;2023-05-08T11:03:17;1.50;;;0.80;;
57067;SDS011;43391;47.448;18.904;2023-05-08T11:05:46;1.25;;;0.85;;
57067;SDS011;43391;47.448;18.904;2023-05-08T11:08:13;4.40;;;0.90;;
57067;SDS011;43391;47.448;18.904;2023-05-08T11:10:43;2.15;;;0.80;;
57067;SDS011;43391;47.448;18.904;2023-05-08T11:13:16;1.25;;;0.90;;
57067;SDS011;43391;47.448;18.904;2023-05-08T11:15:48;0.93;;;0.73;;
57067;SDS011;43391;47.448;18.904;2023-05-08T11:18:15;2.15;;;0.80;;
57067;SDS011;43391;47.448;18.904;2023-05-08T11:20:42;1.33;;;0.80;;
57067;SDS011;43391;47.448;18.904;2023-05-08T11:23:27;1.55;;;1.00;;
57067;SDS011;43391;47.448;18.904;2023-05-08T11:26:00;0.95;;;0.70;;
57067;SDS011;43391;47.448;18.904;2023-05-08T11:31:22;2.95;;;1.00;;
57067;SDS011;43391;47.448;18.904;2023-05-08T11:33:47;1.00;;;1.00;;
57067;SDS011;43391;47.448;18.904;2023-05-08T11:36:16;3.20;;;0.80;;
57067;SDS011;43391;47.448;18.904;2023-05-08T11:41:36;0.70;;;0.70;;
57067;SDS011;43391;47.448;18.904;2023-05-08T11:46:39;1.55;;;0.80;;
57067;SDS011;43391;47.448;18.904;2023-05-08T11:49:14;1.08;;;0.70;;
57067;SDS011;43391;47.448;18.904;2023-05-08T11:51:42;1.48;;;0.90;;
57067;SDS011;43391;47.448;18.904;2023-05-08T11:54:14;1.08;;;0.98;;
57067;SDS011;43391;47.448;18.904;2023-05-08T11:56:41;7.40;;;1.30;;
57067;SDS011;43391;47.448;18.904;2023-05-08T11:59:07;0.80;;;0.80;;
57067;SDS011;43391;47.448;18.904;2023-05-08T12:01:33;1.45;;;0.70;;
57067;SDS011;43391;47.448;18.904;2023-05-08T12:04:03;0.80;;;0.80;;
57067;SDS011;43391;47.448;18.904;2023-05-08T12:06:29;1.65;;;1.10;;
57067;SDS011;43391;47.448;18.904;2023-05-08T12:08:56;0.85;;;0.75;;
57067;SDS011;43391;47.448;18.904;2023-05-08T12:11:22;1.00;;;0.90;;
57067;SDS011;43391;47.448;18.904;2023-05-08T12:13:52;1.65;;;1.05;;
57067;SDS011;43391;47.448;18.904;2023-05-08T12:16:18;1.88;;;0.95;;
57067;SDS011;43391;47.448;18.904;2023-05-08T12:18:45;3.13;;;0.80;;
57067;SDS011;43391;47.448;18.904;2023-05-08T12:23:39;1.20;;;0.90;;
57067;SDS011;43391;47.448;18.904;2023-05-08T12:26:04;0.98;;;0.88;;
57067;SDS011;43391;47.448;18.904;2023-05-08T12:28:30;2.72;;;1.00;;
57067;SDS011;43391;47.448;18.904;2023-05-08T12:30:58;1.60;;;0.95;;
57067;SDS011;43391;47.448;18.904;2023-05-08T12:33:24;0.88;;;0.88;;
57067;SDS011;43391;47.448;18.904;2023-05-08T12:35:50;1.48;;;0.90;;
57067;SDS011;43391;47.448;18.904;2023-05-08T12:38:15;2.28;;;1.15;;
57067;SDS011;43391;47.448;18.904;2023-05-08T12:40:41;2.20;;;0.90;;
57067;SDS011;43391;47.448;18.904;2023-05-08T12:43:08;1.02;;;0.90;;
57067;SDS011;43391;47.448;18.904;2023-05-08T12:45:38;1.73;;;0.90;;
57067;SDS011;43391;47.448;18.904;2023-05-08T12:48:05;1.35;;;1.17;;
57067;SDS011;43391;47.448;18.904;2023-05-08T12:50:33;2.47;;;1.25;;
57067;SDS011;43391;47.448;18.904;2023-05-08T12:53:06;2.05;;;1.33;;
57067;SDS011;43391;47.448;18.904;2023-05-08T12:55:34;1.75;;;1.33;;
57067;SDS011;43391;47.448;18.904;2023-05-08T12:58:05;3.10;;;1.05;;
57067;SDS011;43391;47.448;18.904;2023-05-08T13:03:03;1.23;;;1.00;;
57067;SDS011;43391;47.448;18.904;2023-05-08T13:05:29;1.23;;;0.90;;
57067;SDS011;43391;47.448;18.904;2023-05-08T13:08:01;1.88;;;0.90;;
57067;SDS011;43391;47.448;18.904;2023-05-08T13:13:07;2.05;;;0.80;;
57067;SDS011;43391;47.448;18.904;2023-05-08T13:15:33;3.70;;;1.10;;
57067;SDS011;43391;47.448;18.904;2023-05-08T13:17:59;2.10;;;1.02;;
57067;SDS011;43391;47.448;18.904;2023-05-08T13:20:24;1.58;;;1.42;;
57067;SDS011;43391;47.448;18.904;2023-05-08T13:22:50;1.23;;;1.13;;
57067;SDS011;43391;47.448;18.904;2023-05-08T13:25:15;2.28;;;1.05;;
57067;SDS011;43391;47.448;18.904;2023-05-08T13:27:40;1.70;;;1.20;;
57067;SDS011;43391;47.448;18.904;2023-05-08T13:30:06;2.60;;;1.00;;
57067;SDS011;43391;47.448;18.904;2023-05-08T13:32:32;3.30;;;1.13;;
57067;SDS011;43391;47.448;18.904;2023-05-08T13:34:57;1.23;;;1.13;;
57067;SDS011;43391;47.448;18.904;2023-05-08T13:37:23;1.25;;;1.00;;
57067;SDS011;43391;47.448;18.904;2023-05-08T13:39:48;1.08;;;0.80;;
57067;SDS011;43391;47.448;18.904;2023-05-08T13:42:13;2.13;;;1.10;;
57067;SDS011;43391;47.448;18.904;2023-05-08T13:44:39;1.27;;;1.17;;
57067;SDS011;43391;47.448;18.904;2023-05-08T13:47:04;2.45;;;0.95;;
57067;SDS011;43391;47.448;18.904;2023-05-08T13:49:30;2.58;;;1.10;;
57067;SDS011;43391;47.448;18.904;2023-05-08T13:51:55;3.22;;;1.13;;
57067;SDS011;43391;47.448;18.904;2023-05-08T13:54:20;2.60;;;1.50;;
57067;SDS011;43391;47.448;18.904;2023-05-08T13:56:45;3.15;;;1.50;;
57067;SDS011;43391;47.448;18.904;2023-05-08T13:59:12;3.28;;;1.30;;
57067;SDS011;43391;47.448;18.904;2023-05-08T14:01:37;3.33;;;1.85;;
57067;SDS011;43391;47.448;18.904;2023-05-08T14:04:03;3.15;;;1.30;;
57067;SDS011;43391;47.448;18.904;2023-05-08T14:06:28;2.78;;;1.20;;
57067;SDS011;43391;47.448;18.904;2023-05-08T14:08:54;2.53;;;1.00;;
57067;SDS011;43391;47.448;18.904;2023-05-08T14:11:19;2.60;;;1.17;;
57067;SDS011;43391;47.448;18.904;2023-05-08T14:13:46;3.45;;;1.27;;
57067;SDS011;43391;47.448;18.904;2023-05-08T14:16:11;2.63;;;1.15;;
57067;SDS011;43391;47.448;18.904;2023-05-08T14:18:38;1.45;;;1.25;;
57067;SDS011;43391;47.448;18.904;2023-05-08T14:21:04;4.88;;;2.72;;
57067;SDS011;43391;47.448;18.904;2023-05-08T14:23:29;2.95;;;1.23;;
57067;SDS011;43391;47.448;18.904;2023-05-08T14:25:55;1.40;;;1.30;;
57067;SDS011;43391;47.448;18.904;2023-05-08T14:28:20;4.07;;;1.50;;
57067;SDS011;43391;47.448;18.904;2023-05-08T14:30:45;3.97;;;1.20;;
57067;SDS011;43391;47.448;18.904;2023-05-08T14:33:11;6.85;;;1.77;;
57067;SDS011;43391;47.448;18.904;2023-05-08T14:35:36;3.13;;;1.33;;
57067;SDS011;43391;47.448;18.904;2023-05-08T14:38:01;2.30;;;1.67;;
57067;SDS011;43391;47.448;18.904;2023-05-08T14:40:27;3.33;;;1.30;;
57067;SDS011;43391;47.448;18.904;2023-05-08T14:42:52;4.93;;;1.23;;
57067;SDS011;43391;47.448;18.904;2023-05-08T14:45:17;6.47;;;1.83;;
57067;SDS011;43391;47.448;18.904;2023-05-08T14:47:43;5.25;;;1.42;;
57067;SDS011;43391;47.448;18.904;2023-05-08T14:50:08;1.90;;;1.05;;
57067;SDS011;43391;47.448;18.904;2023-05-08T14:52:34;1.73;;;1.10;;
57067;SDS011;43391;47.448;18.904;2023-05-08T14:54:59;4.75;;;2.17;;
57067;SDS011;43391;47.448;18.904;2023-05-08T14:57:25;2.22;;;1.30;;
57067;SDS011;43391;47.448;18.904;2023-05-08T14:59:51;1.70;;;1.40;;
57067;SDS011;43391;47.448;18.904;2023-05-08T15:02:16;4.30;;;1.30;;
57067;SDS011;43391;47.448;18.904;2023-05-08T15:04:41;2.00;;;1.17;;
57067;SDS011;43391;47.448;18.904;2023-05-08T15:07:08;12.95;;;3.25;;
57067;SDS011;43391;47.448;18.904;2023-05-08T15:09:33;1.38;;;1.25;;
57067;SDS011;43391;47.448;18.904;2023-05-08T15:11:58;4.68;;;1.67;;
57067;SDS011;43391;47.448;18.904;2023-05-08T15:14:24;3.38;;;1.30;;
57067;SDS011;43391;47.448;18.904;2023-05-08T15:16:51;2.17;;;1.60;;
57067;SDS011;43391;47.448;18.904;2023-05-08T15:19:16;3.40;;;1.55;;
57067;SDS011;43391;47.448;18.904;2023-05-08T15:21:41;1.27;;;1.17;;
57067;SDS011;43391;47.448;18.904;2023-05-08T15:24:07;1.50;;;1.35;;
57067;SDS011;43391;47.448;18.904;2023-05-08T15:26:32;9.23;;;4.43;;
57067;SDS011;43391;47.448;18.904;2023-05-08T15:28:58;2.58;;;1.35;;
57067;SDS011;43391;47.448;18.904;2023-05-08T15:31:23;2.85;;;1.63;;
57067;SDS011;43391;47.448;18.904;2023-05-08T15:33:49;5.00;;;1.80;;